Flight Track Log - Related Links

Times and Time Zones

All times are in EDT time to prevent confusion due to time zone crossing. See the UAL20 flight status page for this flight to view local times or setup timezone preferences in your user account.

Time Position Orientation Groundspeed Altitude Reporting Facility
EDT Latitude Longitude Course Direction KTS MPH feet Rate Location/Type
Tue 07:45:37 PM 40.7110 -74.1480 201° Southwest 163 188 1,400  Level FlightAware ADS-B
Tue 07:46:00 PM 40.7244 -74.1274 49° Northeast 164 189 1,900 1,538 Climbing FlightAware ADS-B
Tue 07:46:16 PM 40.7344 -74.1122 49° Northeast 164 189 2,400 2,000 Climbing FlightAware ADS-B
Tue 07:46:21 PM 40.7378 -74.1078 44° Northeast 215 247 2,600 2,000 Climbing FlightAware ADS-B
Tue 07:46:25 PM 40.7416 -74.1040 37° Northeast 216 249 2,700 750 Climbing FlightAware ADS-B
Tue 07:46:29 PM 40.7450 -74.1014 30° Northeast 216 249 2,700 750 Level FlightAware ADS-B
Tue 07:46:33 PM 40.7486 -74.0995 22° Northeast 216 249 2,800 600 Climbing FlightAware ADS-B
Tue 07:46:39 PM 40.7545 -74.0979 12° North 215 247 2,800 429 Level FlightAware ADS-B
Tue 07:46:47 PM 40.7622 -74.0964 North 215 247 2,900 1,059 Climbing FlightAware ADS-B
Tue 07:46:56 PM 40.7718 -74.0954 North 225 259 3,100 1,333 Climbing FlightAware ADS-B
Tue 07:47:05 PM 40.7809 -74.0947 North 235 270 3,300 1,385 Climbing FlightAware ADS-B
Tue 07:47:09 PM 40.7857 -74.0941 North 239 275 3,400 2,000 Climbing FlightAware ADS-B
Tue 07:47:14 PM 40.7903 -74.0930 10° North 241 277 3,600 2,400 Climbing FlightAware ADS-B
Tue 07:47:29 PM 40.8063 -74.0853 20° North 249 287 4,200 2,455 Climbing FlightAware ADS-B
Tue 07:47:36 PM 40.8142 -74.0805 25° Northeast 255 293 4,500 2,182 Climbing FlightAware ADS-B
Tue 07:47:40 PM 40.8178 -74.0781 27° Northeast 257 296 4,600 857 Climbing FlightAware ADS-B
Tue 07:47:43 PM 40.8211 -74.0753 33° Northeast 258 297 4,600 1,000 Level FlightAware ADS-B
Tue 07:47:46 PM 40.8243 -74.0723 35° Northeast 258 297 4,700 1,714 Climbing FlightAware ADS-B
Tue 07:47:50 PM 40.8278 -74.0683 41° Northeast 260 299 4,800 2,571 Climbing FlightAware ADS-B
Tue 07:47:53 PM 40.8307 -74.0645 45° Northeast 261 300 5,000 2,571 Climbing FlightAware ADS-B
Tue 07:47:57 PM 40.8333 -74.0602 51° Northeast 262 302 5,100 3,500 Climbing FlightAware ADS-B
Tue 07:48:05 PM 40.8393 -74.0491 54° Northeast 260 299 5,700 3,000 Climbing FlightAware ADS-B
Tue 07:48:21 PM 40.8492 -74.0285 58° Northeast 265 305 6,300 1,742 Climbing FlightAware ADS-B
Tue 07:48:36 PM 40.8594 -74.0070 58° Northeast 268 308 6,600 800 Climbing FlightAware ADS-B
Tue 07:48:51 PM 40.8688 -73.9862 59° Northeast 268 308 6,700 621 Climbing FlightAware ADS-B
Tue 07:49:05 PM 40.8777 -73.9674 58° Northeast 271 312 6,900 1,862 Climbing FlightAware ADS-B
Tue 07:49:20 PM 40.8880 -73.9456 58° Northeast 273 314 7,600 3,000 Climbing FlightAware ADS-B
Tue 07:49:35 PM 40.8981 -73.9238 58° Northeast 272 313 8,400 3,000 Climbing FlightAware ADS-B
Tue 07:49:44 PM 40.9045 -73.9109 57° Northeast 275 316 8,800 2,400 Climbing FlightAware ADS-B
Tue 07:49:45 PM 40.9048 -73.9100 66° East 275 316 8,800 2,400 Level FlightAware ADS-B
Tue 07:49:49 PM 40.9083 -73.9047 49° Northeast 276 318 9,000 2,400 Climbing FlightAware ADS-B
Tue 07:49:55 PM 40.9138 -73.8974 45° Northeast 276 318 9,200 2,250 Climbing FlightAware ADS-B
Tue 07:49:57 PM 40.9155 -73.8951 46° Northeast 276 318 9,300 2,727 Climbing FlightAware ADS-B
Tue 07:50:06 PM 40.9237 -73.8848 44° Northeast 278 320 9,700 2,769 Climbing FlightAware ADS-B
Tue 07:50:10 PM 40.9275 -73.8796 46° Northeast 279 321 9,900 3,600 Climbing FlightAware ADS-B
Tue 07:50:11 PM 40.9284 -73.8784 45° Northeast 280 322 10,000 1,455 Climbing FlightAware ADS-B
Tue 07:50:43 PM 40.9534 -73.8326 54° Northeast 310 357 10,700 1,250 Climbing FlightAware ADS-B
Tue 07:51:23 PM 40.9919 -73.7667 52° Northeast 353 406 11,500 1,139 Climbing FlightAware ADS-B
Tue 07:52:02 PM 41.0290 -73.7060 51° Northeast 388 447 12,200 1,618 Climbing FlightAware ADS-B
Tue 07:52:52 PM 41.0910 -73.6050 51° Northeast 410 472 13,900 2,133 Climbing FlightAware ADS-B
Tue 07:53:32 PM 41.1390 -73.5270 51° Northeast 417 480 15,400 2,188 Climbing FlightAware ADS-B
Tue 07:54:17 PM 41.1930 -73.4380 51° Northeast 422 486 17,000 1,929 Climbing FlightAware ADS-B
Tue 07:55:52 PM 41.3160 -73.2370 51° Northeast 451 519 19,900 1,733 Climbing FlightAware ADS-B
Tue 07:56:32 PM 41.3670 -73.1510 52° Northeast 459 528 20,900 1,553 Climbing FlightAware ADS-B
Tue 07:57:17 PM 41.4210 -73.0370 58° Northeast 469 540 22,100 1,341 Climbing FlightAware ADS-B
Tue 07:57:57 PM 41.4660 -72.9340 60° Northeast 485 558 22,800 494 Climbing FlightAware ADS-B
Tue 07:58:42 PM 41.5120 -72.8310 59° Northeast 487 560 22,800 706 Level FlightAware ADS-B
Tue 07:59:22 PM 41.5540 -72.7320 60° Northeast 466 536 23,800 1,694 Climbing FlightAware ADS-B
Tue 08:00:07 PM 41.6060 -72.6100 60° Northeast 474 545 25,200 1,867 Climbing FlightAware ADS-B
Tue 08:00:57 PM 41.6490 -72.5000 62° Northeast 26,900 1,867 Climbing FlightAware ADS-B
Tue 08:01:37 PM 41.6910 -72.3870 64° Northeast 467 537 28,000 1,350 Climbing FlightAware ADS-B
Tue 08:02:17 PM 41.7310 -72.2820 63° Northeast 478 550 28,700 1,067 Climbing FlightAware ADS-B
Tue 08:03:07 PM 41.7820 -72.1470 63° Northeast 489 563 29,600 988 Climbing FlightAware ADS-B
Tue 08:03:42 PM 41.8150 -72.0600 63° Northeast 496 571 30,100 1,129 Climbing FlightAware ADS-B
Tue 08:04:32 PM 41.8700 -71.9150 63° Northeast 499 574 31,200 1,400 Climbing FlightAware ADS-B
Tue 08:05:12 PM 41.9090 -71.8090 64° Northeast 497 572 32,200 1,360 Climbing FlightAware ADS-B
Tue 08:05:47 PM 41.9500 -71.6980 64° Northeast 499 574 32,900 1,143 Climbing FlightAware ADS-B
Tue 08:06:15 PM 41.9767 -71.6469 64° Northeast 481 554 33,400 1,091 Climbing Boston Center
Tue 08:07:15 PM 42.0419 -71.4842 62° Northeast 486 559 34,500 950 Climbing Boston Center
Tue 08:08:15 PM 42.1031 -71.3153 64° Northeast 491 565 35,300 800 Climbing Boston Center
Tue 08:09:15 PM 42.1658 -71.1461 63° Northeast 496 571 36,100 242 Climbing Boston Center
Tue 08:15:17 PM 42.5390 -70.0660 63° Northeast 522 601 37,000 133 Climbing FlightAware ADS-B
Tue 08:16:02 PM 42.5880 -69.9270 64° Northeast 522 601 37,000  Level FlightAware ADS-B
Tue 08:16:28 PM 42.6000 -69.8833 64° Northeast 520 598 37,000  Level Moncton Center
Tue 08:17:15 PM 42.6581 -69.7408 61° Northeast 512 589 37,000  Level Boston Center
Tue 08:18:15 PM 42.7203 -69.5631 64° Northeast 512 589 37,000  Level Boston Center
Tue 08:23:17 PM 43.0260 -68.6440 64° Northeast 527 606 37,000  Level FlightAware ADS-B
Tue 08:24:07 PM 43.0790 -68.4850 65° Northeast 529 609 37,000  Level FlightAware ADS-B
Tue 08:24:52 PM 43.1240 -68.3470 66° East 528 608 37,000  Level FlightAware ADS-B
Tue 08:25:47 PM 43.1770 -68.1880 65° Northeast 530 610 37,000  Level FlightAware ADS-B
Tue 08:26:27 PM 43.2110 -68.0840 66° East 530 610 37,000  Level FlightAware ADS-B
Tue 08:27:07 PM 43.2450 -67.9790 66° East 530 610 37,000  Level FlightAware ADS-B
Tue 08:27:52 PM 43.3110 -67.7780 66° East 530 610 37,000  Level FlightAware ADS-B
Tue 08:28:32 PM 43.3490 -67.6590 66° East 530 610 37,000  Level FlightAware ADS-B
Tue 08:29:17 PM 43.3940 -67.5180 66° East 532 612 37,000  Level FlightAware ADS-B
Tue 08:29:57 PM 43.4350 -67.3920 66° East 532 612 37,000  Level FlightAware ADS-B
Tue 08:30:42 PM 43.4770 -67.2580 67° East 532 612 37,000  Level FlightAware ADS-B
Tue 08:31:22 PM 43.5170 -67.1320 66° East 531 611 37,000  Level FlightAware ADS-B
Tue 08:32:02 PM 43.5580 -67.0110 65° Northeast 529 609 37,000  Level FlightAware ADS-B
Tue 08:32:47 PM 43.6190 -66.8810 57° Northeast 531 611 37,000  Level FlightAware ADS-B
Tue 08:33:32 PM 43.6840 -66.7560 54° Northeast 532 612 37,000  Level FlightAware ADS-B
Tue 08:34:12 PM 43.7430 -66.6450 54° Northeast 532 612 37,000  Level FlightAware ADS-B
Tue 08:34:52 PM 43.8000 -66.5360 54° Northeast 532 612 37,000  Level FlightAware ADS-B
Tue 08:35:32 PM 43.8590 -66.4230 54° Northeast 531 611 37,000  Level FlightAware ADS-B
Tue 08:36:17 PM 43.9270 -66.2930 54° Northeast 530 610 37,000  Level FlightAware ADS-B
Tue 08:37:02 PM 43.9900 -66.1700 55° Northeast 530 610 37,000  Level FlightAware ADS-B
Tue 08:37:42 PM 44.0480 -66.0580 54° Northeast 535 616 37,000  Level FlightAware ADS-B
Tue 08:38:22 PM 44.1060 -65.9440 55° Northeast 535 616 37,000  Level FlightAware ADS-B
Tue 08:39:02 PM 44.1630 -65.8330 54° Northeast 535 616 37,000  Level FlightAware ADS-B
Tue 08:39:47 PM 44.2260 -65.7080 55° Northeast 534 615 37,000  Level FlightAware ADS-B
Tue 08:40:17 PM 44.2680 -65.6250 55° Northeast 534 615 37,000  Level FlightAware ADS-B
Tue 08:40:57 PM 44.3250 -65.5140 54° Northeast 534 615 37,000  Level FlightAware ADS-B
Tue 08:41:42 PM 44.3900 -65.3830 55° Northeast 533 613 37,000  Level FlightAware ADS-B
Tue 08:42:22 PM 44.4460 -65.2720 55° Northeast 532 612 37,000  Level FlightAware ADS-B
Tue 08:43:02 PM 44.5010 -65.1610 55° Northeast 530 610 37,000  Level FlightAware ADS-B
Tue 08:43:47 PM 44.5640 -65.0360 55° Northeast 531 611 37,000  Level FlightAware ADS-B
Tue 08:44:27 PM 44.6220 -64.9180 55° Northeast 526 605 37,000  Level FlightAware ADS-B
Tue 08:45:12 PM 44.6820 -64.7950 56° Northeast 527 606 37,000  Level FlightAware ADS-B
Tue 08:45:52 PM 44.7400 -64.6780 55° Northeast 527 606 37,000  Level FlightAware ADS-B
Tue 08:46:32 PM 44.7950 -64.5650 56° Northeast 527 606 37,000  Level FlightAware ADS-B
Tue 08:47:17 PM 44.8600 -64.4310 56° Northeast 532 612 37,000  Level FlightAware ADS-B
Tue 08:47:57 PM 44.9160 -64.3150 56° Northeast 533 613 37,000  Level FlightAware ADS-B
Tue 08:48:42 PM 44.9780 -64.1870 56° Northeast 534 615 37,000  Level FlightAware ADS-B
Tue 08:49:22 PM 45.0290 -64.0810 56° Northeast 534 615 37,000  Level FlightAware ADS-B
Tue 08:51:42 PM 45.2220 -63.6740 56° Northeast 535 616 37,000  Level FlightAware ADS-B
Tue 08:52:22 PM 45.2750 -63.5620 56° Northeast 37,000  Level FlightAware ADS-B
Tue 08:52:54 PM 45.3000 -63.4667 56° Northeast 530 610 37,000  Level Gander Center
Tue 08:53:28 PM 45.3500 -63.3500 59° Northeast 530 610 37,000  Level Moncton Center
Tue 08:54:28 PM 45.4333 -63.1833 54° Northeast 530 610 37,000  Level Moncton Center
Tue 08:55:28 PM 45.5167 -62.9833 59° Northeast 530 610 37,000  Level Moncton Center
Tue 08:56:28 PM 45.6000 -62.8167 54° Northeast 530 610 37,000  Level Moncton Center
Tue 09:01:57 PM 46.0530 -61.8550 54° Northeast 531 611 37,000  Level FlightAware ADS-B
Tue 09:02:37 PM 46.1080 -61.7300 58° Northeast 531 611 37,000  Level FlightAware ADS-B
Tue 09:03:22 PM 46.1670 -61.5960 58° Northeast 530 610 37,000  Level FlightAware ADS-B
Tue 09:04:02 PM 46.2190 -61.4770 58° Northeast 530 610 37,000  Level FlightAware ADS-B
Tue 09:04:47 PM 46.2780 -61.3410 58° Northeast 528 608 37,000  Level FlightAware ADS-B
Tue 09:05:27 PM 46.3310 -61.2190 58° Northeast 527 606 37,000  Level FlightAware ADS-B
Tue 09:06:07 PM 46.3820 -61.1010 58° Northeast 526 605 37,000  Level FlightAware ADS-B
Tue 09:06:52 PM 46.4380 -60.9700 58° Northeast 525 604 37,000  Level FlightAware ADS-B
Tue 09:07:32 PM 46.4900 -60.8500 58° Northeast 525 604 37,000  Level FlightAware ADS-B
Tue 09:08:12 PM 46.5410 -60.7300 58° Northeast 524 603 37,000  Level FlightAware ADS-B
Tue 09:08:57 PM 46.5990 -60.5920 59° Northeast 522 601 37,000  Level FlightAware ADS-B
Tue 09:09:37 PM 46.6490 -60.4740 58° Northeast 521 600 37,000  Level FlightAware ADS-B
Tue 09:10:22 PM 46.7050 -60.3410 58° Northeast 521 600 37,000  Level FlightAware ADS-B
Tue 09:11:02 PM 46.7550 -60.2210 59° Northeast 521 600 37,000  Level FlightAware ADS-B
Tue 09:11:47 PM 46.8120 -60.0840 59° Northeast 522 601 37,000  Level FlightAware ADS-B
Tue 09:12:27 PM 46.8620 -59.9630 59° Northeast 521 600 37,000  Level FlightAware ADS-B
Tue 09:13:07 PM 46.9120 -59.8410 59° Northeast 522 601 37,000  Level FlightAware ADS-B
Tue 09:13:52 PM 46.9660 -59.7090 59° Northeast 522 601 37,000  Level FlightAware ADS-B
Tue 09:14:32 PM 47.0150 -59.5880 59° Northeast 522 601 37,000  Level FlightAware ADS-B
Tue 09:15:12 PM 47.0640 -59.4670 59° Northeast 523 602 37,000  Level FlightAware ADS-B
Tue 09:15:57 PM 47.1210 -59.3270 59° Northeast 523 602 37,000  Level FlightAware ADS-B
Tue 09:16:37 PM 47.1710 -59.2030 59° Northeast 524 603 37,000  Level FlightAware ADS-B
Tue 09:17:22 PM 47.2240 -59.0710 59° Northeast 523 602 37,000  Level FlightAware ADS-B
Tue 09:18:02 PM 47.2700 -58.9550 60° Northeast 524 603 37,000  Level FlightAware ADS-B
Tue 09:18:37 PM 47.3110 -58.8540 59° Northeast 524 603 37,000  Level FlightAware ADS-B
Tue 09:19:27 PM 47.3760 -58.6870 60° Northeast 526 605 37,000  Level FlightAware ADS-B
Tue 09:20:22 PM 47.4450 -58.5100 60° Northeast 527 606 37,000  Level FlightAware ADS-B
Tue 09:20:57 PM 47.4830 -58.4130 60° Northeast 527 606 37,000  Level FlightAware ADS-B
Tue 09:21:47 PM 47.5350 -58.2810 60° Northeast 527 606 37,000  Level FlightAware ADS-B
Tue 09:22:27 PM 47.5760 -58.1740 60° Northeast 527 606 37,000  Level FlightAware ADS-B
Tue 09:23:07 PM 47.6180 -58.0680 60° Northeast 527 606 37,000  Level FlightAware ADS-B
Tue 09:23:47 PM 47.6590 -57.9610 60° Northeast 527 606 37,000  Level FlightAware ADS-B
Tue 09:24:37 PM 47.7110 -57.8280 60° Northeast 527 606 37,000  Level FlightAware ADS-B
Tue 09:25:17 PM 47.7980 -57.5920 61° Northeast 525 604 37,000  Level FlightAware ADS-B
Tue 09:25:57 PM 47.8440 -57.4710 60° Northeast 525 604 37,000  Level FlightAware ADS-B
Tue 09:26:42 PM 47.8960 -57.3200 63° Northeast 529 609 37,000 -240 Level FlightAware ADS-B
Tue 09:27:37 PM 47.9560 -57.1340 64° Northeast 531 611 36,600 -505 Descending FlightAware ADS-B
Tue 09:28:17 PM 47.9980 -57.0050 64° Northeast 530 610 36,200 -424 Descending FlightAware ADS-B
Tue 09:29:02 PM 48.0440 -56.8620 64° Northeast 525 604 36,000 -120 Descending FlightAware ADS-B
Tue 09:29:57 PM 48.1030 -56.6810 64° Northeast 520 598 36,000  Level FlightAware ADS-B
Tue 09:30:37 PM 48.1420 -56.5610 64° Northeast 521 600 36,000  Level FlightAware ADS-B
Tue 09:31:22 PM 48.1890 -56.4160 64° Northeast 524 603 36,000  Level FlightAware ADS-B
Tue 09:32:12 PM 48.2420 -56.2490 64° Northeast 526 605 36,000  Level FlightAware ADS-B
Tue 09:33:02 PM 48.2870 -56.1100 64° Northeast 526 605 36,000  Level FlightAware ADS-B
Tue 09:33:42 PM 48.3370 -55.9450 65° Northeast 532 612 36,000  Level FlightAware ADS-B
Tue 09:34:37 PM 48.3910 -55.7760 64° Northeast 533 613 36,000  Level FlightAware ADS-B
Tue 09:35:22 PM 48.4390 -55.6170 65° Northeast 534 615 36,000  Level FlightAware ADS-B
Tue 09:36:02 PM 48.4740 -55.5020 65° Northeast 534 615 36,000  Level FlightAware ADS-B
Tue 09:36:42 PM 48.5230 -55.3400 65° Northeast 534 615 36,000  Level FlightAware ADS-B
Tue 09:37:27 PM 48.5650 -55.2040 65° Northeast 36,000  Level FlightAware ADS-B
Tue 09:38:07 PM 48.6100 -55.0540 66° East 526 605 36,000  Level FlightAware ADS-B
Tue 09:38:52 PM 48.6550 -54.9050 65° Northeast 523 602 36,000  Level FlightAware ADS-B
Tue 09:39:27 PM 48.6870 -54.8000 65° Northeast 520 598 36,000  Level FlightAware ADS-B
Tue 09:40:07 PM 48.7280 -54.6610 66° East 520 598 36,000  Level FlightAware ADS-B
Tue 09:40:47 PM 48.7650 -54.5350 66° East 519 597 36,000  Level FlightAware ADS-B
Tue 09:41:37 PM 48.8170 -54.3600 66° East 517 595 36,000  Level FlightAware ADS-B
Tue 09:42:22 PM 48.8620 -54.2060 66° East 516 594 36,000  Level FlightAware ADS-B
Tue 09:43:02 PM 48.8990 -54.0790 66° East 516 594 36,000  Level FlightAware ADS-B
Tue 09:43:42 PM 48.9390 -53.9410 66° East 515 593 36,000  Level FlightAware ADS-B
Tue 09:44:27 PM 48.9820 -53.7900 66° East 511 588 36,000  Level FlightAware ADS-B
Tue 09:45:07 PM 49.0200 -53.6580 66° East 512 589 36,000  Level FlightAware ADS-B
Tue 09:45:47 PM 49.0580 -53.5220 67° East 512 589 36,000  Level FlightAware ADS-B
Tue 09:46:32 PM 49.1010 -53.3720 66° East 513 590 36,000  Level FlightAware ADS-B
Tue 09:47:12 PM 49.1380 -53.2400 67° East 513 590 36,000  Level FlightAware ADS-B
Tue 09:47:57 PM 49.1800 -53.0900 67° East 514 592 36,000  Level FlightAware ADS-B
Tue 09:48:37 PM 49.2180 -52.9540 67° East 516 594 36,000  Level FlightAware ADS-B
Tue 09:49:17 PM 49.2560 -52.8150 67° East 520 598 36,000  Level FlightAware ADS-B
Tue 09:50:17 PM 49.3060 -52.6330 67° East 521 600 36,000  Level FlightAware ADS-B
Tue 09:50:57 PM 49.3450 -52.4900 67° East 520 598 36,000  Level FlightAware ADS-B
Tue 09:51:32 PM 49.3730 -52.3830 68° East 520 598 36,000  Level FlightAware ADS-B
Tue 09:52:22 PM 49.4110 -52.2370 68° East 520 598 36,000  Level FlightAware ADS-B
Tue 09:53:02 PM 49.4420 -52.1200 68° East 520 598 36,000  Level FlightAware ADS-B
Tue 09:53:47 PM 49.5040 -51.8960 67° East 514 592 36,000  Level FlightAware ADS-B
Tue 09:54:27 PM 49.5390 -51.7640 68° East 510 587 36,000  Level FlightAware ADS-B
Tue 09:55:07 PM 49.5720 -51.6400 68° East 504 580 36,000  Level FlightAware ADS-B
Tue 09:55:47 PM 49.6090 -51.4980 68° East 501 577 36,000  Level FlightAware ADS-B
Tue 09:56:47 PM 49.6580 -51.3090 68° East 497 572 36,000  Level FlightAware ADS-B
Tue 09:57:27 PM 49.6880 -51.1870 69° East 497 572 36,000  Level FlightAware ADS-B
Tue 09:58:07 PM 49.7160 -51.0750 69° East 497 572 36,000  Level FlightAware ADS-B
Tue 09:58:47 PM 49.7440 -50.9620 69° East 497 572 36,000  Level FlightAware ADS-B
Tue 09:59:27 PM 49.7720 -50.8490 69° East 497 572 36,000  Level FlightAware ADS-B
Tue 10:00:17 PM 49.8070 -50.7070 69° East 497 572 36,000  Level FlightAware ADS-B
Tue 10:00:57 PM 49.8350 -50.5940 69° East 497 572 36,000  Level FlightAware ADS-B
Tue 10:01:37 PM 49.8630 -50.4810 69° East 497 572 36,000  Level FlightAware ADS-B
Tue 10:02:17 PM 49.8910 -50.3680 69° East 497 572 36,000  Level FlightAware ADS-B
Tue 10:02:57 PM 49.9190 -50.2540 69° East 497 572 36,000  Level FlightAware ADS-B
Tue 10:03:47 PM 49.9540 -50.1130 69° East 497 572 36,000  Level FlightAware ADS-B
Tue 10:04:27 PM 49.9820 -49.9990 69° East 497 572 36,000  Level FlightAware ADS-B
Tue 10:04:59 PM 50.0000 -50.0000 69° East 484 557 36,000  Level ETMS Enhanced Traffic Management System
Tue 10:05:07 PM 50.0100 -49.8860 69° East 497 572 36,000  Level FlightAware ADS-B
Tue 10:05:54 PM 50.1000 -49.4667 69° East 480 552 36,000  Level Gander Center
Tue 10:05:57 PM 50.0450 -49.7440 69° East 497 572 36,000  Level FlightAware ADS-B
Tue 10:06:37 PM 50.0730 -49.6300 69° East 497 572 36,000  Level FlightAware ADS-B
Tue 10:06:54 PM 50.1500 -49.3000 65° Northeast 470 541 36,000  Level Gander Center
Tue 10:07:54 PM 50.2000 -49.1000 69° East 470 541 36,000  Level Gander Center
Tue 10:08:54 PM 50.2333 -48.9000 75° East 470 541 36,000  Level Gander Center
Tue 10:09:54 PM 50.2833 -48.7000 69° East 470 541 36,000  Level Gander Center
Tue 10:10:54 PM 50.3333 -48.5333 65° Northeast 470 541 36,000  Level Gander Center
Tue 10:12:31 PM 50.4000 -48.2167 72° East 450 518 36,000  Level Gander Center
Tue 10:13:31 PM 50.4500 -48.0333 67° East 470 541 36,000  Level Gander Center
Tue 10:15:00 PM 50.5136 -47.7606 70° East  Level FlightAware Approximate
Tue 10:22:00 PM 50.8292 -46.3524 70° East  Level FlightAware Approximate
Tue 10:23:00 PM 50.8729 -46.1497 71° East  Level FlightAware Approximate
Tue 10:24:00 PM 50.9163 -45.9466 71° East  Level FlightAware Approximate
Tue 10:25:00 PM 50.9593 -45.7431 71° East  Level FlightAware Approximate
Tue 10:26:00 PM 51.0019 -45.5393 72° East  Level FlightAware Approximate
Tue 10:27:00 PM 51.0442 -45.3350 72° East  Level FlightAware Approximate
Tue 10:28:00 PM 51.0861 -45.1305 72° East  Level FlightAware Approximate
Tue 10:29:00 PM 51.1277 -44.9255 72° East  Level FlightAware Approximate
Tue 10:30:00 PM 51.1689 -44.7202 72° East  Level FlightAware Approximate
Tue 10:31:00 PM 51.2097 -44.5145 72° East  Level FlightAware Approximate
Tue 10:32:00 PM 51.2502 -44.3084 72° East  Level FlightAware Approximate
Tue 10:33:00 PM 51.2904 -44.1020 73° East  Level FlightAware Approximate
Tue 10:34:00 PM 51.3301 -43.8952 73° East  Level FlightAware Approximate
Tue 10:35:00 PM 51.3695 -43.6881 73° East  Level FlightAware Approximate
Tue 10:36:00 PM 51.4086 -43.4806 73° East  Level FlightAware Approximate
Tue 10:37:00 PM 51.4472 -43.2728 73° East  Level FlightAware Approximate
Tue 10:38:00 PM 51.4855 -43.0646 73° East  Level FlightAware Approximate
Tue 10:39:00 PM 51.5234 -42.8560 74° East  Level FlightAware Approximate
Tue 10:40:00 PM 51.5610 -42.6471 74° East  Level FlightAware Approximate
Tue 10:41:00 PM 51.5982 -42.4379 74° East  Level FlightAware Approximate
Tue 10:42:00 PM 51.6350 -42.2283 74° East  Level FlightAware Approximate
Tue 10:43:00 PM 51.6715 -42.0184 74° East  Level FlightAware Approximate
Tue 10:44:00 PM 51.7075 -41.8082 74° East  Level FlightAware Approximate
Tue 10:45:00 PM 51.7432 -41.5976 75° East  Level FlightAware Approximate
Tue 10:46:00 PM 51.7785 -41.3867 75° East  Level FlightAware Approximate
Tue 10:47:00 PM 51.8135 -41.1754 75° East  Level FlightAware Approximate
Tue 10:48:00 PM 51.8480 -40.9639 75° East  Level FlightAware Approximate
Tue 10:49:00 PM 51.8822 -40.7520 75° East  Level FlightAware Approximate
Tue 10:50:00 PM 51.9160 -40.5398 75° East  Level FlightAware Approximate
Tue 10:51:00 PM 51.9494 -40.3273 76° East  Level FlightAware Approximate
Tue 10:52:00 PM 51.9824 -40.1144 76° East  Level FlightAware Approximate
Tue 10:53:00 PM 52.0143 -39.9010 77° East  Level FlightAware Approximate
Tue 10:54:00 PM 52.0450 -39.6869 77° East  Level FlightAware Approximate
Tue 10:55:00 PM 52.0753 -39.4726 77° East  Level FlightAware Approximate
Tue 10:56:00 PM 52.1052 -39.2579 77° East  Level FlightAware Approximate
Tue 10:57:00 PM 52.1347 -39.0430 77° East  Level FlightAware Approximate
Tue 10:58:00 PM 52.1638 -38.8278 77° East  Level FlightAware Approximate
Tue 10:58:40 PM 52.0000 -40.0000 77° East 493 567 36,000  Level ETMS Enhanced Traffic Management System
Tue 10:59:00 PM 52.1926 -38.6123 78° East  Level FlightAware Approximate
Tue 11:00:00 PM 52.2209 -38.3965 78° East  Level FlightAware Approximate
Tue 11:01:00 PM 52.2488 -38.1804 78° East  Level FlightAware Approximate
Tue 11:02:00 PM 52.2764 -37.9641 78° East  Level FlightAware Approximate
Tue 11:03:00 PM 52.3035 -37.7475 78° East  Level FlightAware Approximate
Tue 11:04:00 PM 52.3218 -37.6003 79° East 493 567 36,000  Level FlightAware Transoceanic
Tue 11:05:00 PM 52.3486 -37.3805 79° East 493 567 36,000  Level FlightAware Transoceanic
Tue 11:06:00 PM 52.3750 -37.1604 79° East 493 567 36,000  Level FlightAware Transoceanic
Tue 11:07:00 PM 52.4010 -36.9401 79° East 493 567 36,000  Level FlightAware Transoceanic
Tue 11:08:00 PM 52.4266 -36.7195 79° East 493 567 36,000  Level FlightAware Transoceanic
Tue 11:09:00 PM 52.4518 -36.4986 79° East 493 567 36,000  Level FlightAware Transoceanic
Tue 11:10:00 PM 52.4766 -36.2775 80° East 493 567 36,000  Level FlightAware Transoceanic
Tue 11:11:00 PM 52.5009 -36.0561 80° East 493 567 36,000  Level FlightAware Transoceanic
Tue 11:12:00 PM 52.5249 -35.8345 80° East 493 567 36,000  Level FlightAware Transoceanic
Tue 11:13:00 PM 52.5484 -35.6127 80° East 493 567 36,000  Level FlightAware Transoceanic
Tue 11:14:00 PM 52.5715 -35.3906 80° East 493 567 36,000  Level FlightAware Transoceanic
Tue 11:15:00 PM 52.5942 -35.1683 81° East 493 567 36,000  Level FlightAware Transoceanic
Tue 11:16:00 PM 52.6165 -34.9457 81° East 493 567 36,000  Level FlightAware Transoceanic
Tue 11:17:00 PM 52.6384 -34.7229 81° East 493 567 36,000  Level FlightAware Transoceanic
Tue 11:18:00 PM 52.6598 -34.5000 81° East 493 567 36,000  Level FlightAware Transoceanic
Tue 11:19:00 PM 52.6809 -34.2767 81° East 493 567 36,000  Level FlightAware Transoceanic
Tue 11:20:00 PM 52.7015 -34.0533 81° East 493 567 36,000  Level FlightAware Transoceanic
Tue 11:21:00 PM 52.7217 -33.8297 82° East 493 567 36,000  Level FlightAware Transoceanic
Tue 11:22:00 PM 52.7415 -33.6059 82° East 493 567 36,000  Level FlightAware Transoceanic
Tue 11:23:00 PM 52.7608 -33.3818 82° East 493 567 36,000  Level FlightAware Transoceanic
Tue 11:24:00 PM 52.7797 -33.1576 82° East 493 567 36,000  Level FlightAware Transoceanic
Tue 11:25:00 PM 52.7982 -32.9332 82° East 493 567 36,000  Level FlightAware Transoceanic
Tue 11:26:00 PM 52.8163 -32.7086 83° East 493 567 36,000  Level FlightAware Transoceanic
Tue 11:27:00 PM 52.8340 -32.4838 83° East 493 567 36,000  Level FlightAware Transoceanic
Tue 11:28:00 PM 52.8512 -32.2588 83° East 493 567 36,000  Level FlightAware Transoceanic
Tue 11:29:00 PM 52.8680 -32.0336 83° East 493 567 36,000  Level FlightAware Transoceanic
Tue 11:30:00 PM 52.8844 -31.8083 83° East 493 567 36,000  Level FlightAware Transoceanic
Tue 11:31:00 PM 52.9003 -31.5828 83° East 493 567 36,000  Level FlightAware Transoceanic
Tue 11:32:00 PM 52.9159 -31.3571 84° East 493 567 36,000  Level FlightAware Transoceanic
Tue 11:33:00 PM 52.9310 -31.1313 84° East 493 567 36,000  Level FlightAware Transoceanic
Tue 11:34:00 PM 52.9456 -30.9054 84° East 493 567 36,000  Level FlightAware Transoceanic
Tue 11:35:00 PM 52.9599 -30.6792 84° East 493 567 36,000  Level FlightAware Transoceanic
Tue 11:36:00 PM 52.9737 -30.4530 84° East 493 567 36,000  Level FlightAware Transoceanic
Tue 11:37:00 PM 52.9870 -30.2265 84° East 493 567 36,000  Level FlightAware Transoceanic
Tue 11:38:00 PM 52.9998 -30.0029 84° East  Level FlightAware Approximate
Tue 11:39:00 PM 53.0121 -29.7791 85° East  Level FlightAware Approximate
Tue 11:40:00 PM 53.0090 -29.7816 86° East  Level FlightAware Approximate
Tue 11:41:00 PM 53.0178 -29.5573 86° East  Level FlightAware Approximate
Tue 11:42:00 PM 53.0262 -29.3329 86° East  Level FlightAware Approximate
Tue 11:43:00 PM 53.0341 -29.1084 87° East  Level FlightAware Approximate
Tue 11:44:00 PM 53.0417 -28.8838 87° East  Level FlightAware Approximate
Tue 11:45:00 PM 53.0488 -28.6592 87° East  Level FlightAware Approximate
Tue 11:46:00 PM 53.0555 -28.4345 87° East  Level FlightAware Approximate
Tue 11:47:00 PM 53.0617 -28.2097 87° East  Level FlightAware Approximate
Tue 11:48:00 PM 53.0676 -27.9849 87° East  Level FlightAware Approximate
Tue 11:48:00 PM 53.0000 -30.0000 86° East 515 593 36,000  Level ETMS Enhanced Traffic Management System
Tue 11:49:00 PM 53.0730 -27.7600 88° East  Level FlightAware Approximate
Tue 11:50:00 PM 53.0780 -27.5350 88° East  Level FlightAware Approximate
Tue 11:51:00 PM 53.0826 -27.3100 88° East  Level FlightAware Approximate
Tue 11:52:00 PM 53.0867 -27.0850 88° East  Level FlightAware Approximate
Tue 11:53:00 PM 53.0904 -26.8599 88° East  Level FlightAware Approximate
Tue 11:54:00 PM 53.0990 -26.1923 89° East 515 593 36,000  Level FlightAware Transoceanic
Tue 11:55:00 PM 53.1011 -25.9539 89° East 515 593 36,000  Level FlightAware Transoceanic
Tue 11:56:00 PM 53.1028 -25.7154 89° East 515 593 36,000  Level FlightAware Transoceanic
Tue 11:57:00 PM 53.1040 -25.4770 90° East 515 593 36,000  Level FlightAware Transoceanic
Tue 11:58:00 PM 53.1047 -25.2385 90° East 515 593 36,000  Level FlightAware Transoceanic
Tue 11:59:00 PM 53.1049 -25.0000 90° East 515 593 36,000  Level FlightAware Transoceanic
Wed 12:00:00 AM 53.1047 -24.7615 90° East 515 593 36,000  Level FlightAware Transoceanic
Wed 12:01:00 AM 53.1040 -24.5230 90° East 515 593 36,000  Level FlightAware Transoceanic
Wed 12:02:00 AM 53.1028 -24.2846 91° East 515 593 36,000  Level FlightAware Transoceanic
Wed 12:03:00 AM 53.1011 -24.0461 91° East 515 593 36,000  Level FlightAware Transoceanic
Wed 12:04:00 AM 53.0990 -23.8077 91° East 515 593 36,000  Level FlightAware Transoceanic
Wed 12:05:00 AM 53.0964 -23.5693 91° East 515 593 36,000  Level FlightAware Transoceanic
Wed 12:06:00 AM 53.0933 -23.3309 91° East 515 593 36,000  Level FlightAware Transoceanic
Wed 12:07:00 AM 53.0897 -23.0926 92° East 515 593 36,000  Level FlightAware Transoceanic
Wed 12:08:00 AM 53.0856 -22.8543 92° East 515 593 36,000  Level FlightAware Transoceanic
Wed 12:09:00 AM 53.0811 -22.6161 92° East 515 593 36,000  Level FlightAware Transoceanic
Wed 12:10:00 AM 53.0761 -22.3779 92° East 515 593 36,000  Level FlightAware Transoceanic
Wed 12:11:00 AM 53.0706 -22.1397 92° East 515 593 36,000  Level FlightAware Transoceanic
Wed 12:12:00 AM 53.0647 -21.9017 92° East 515 593 36,000  Level FlightAware Transoceanic
Wed 12:13:00 AM 53.0583 -21.6637 93° East 515 593 36,000  Level FlightAware Transoceanic
Wed 12:14:00 AM 53.0514 -21.4257 93° East 515 593 36,000  Level FlightAware Transoceanic
Wed 12:15:00 AM 53.0440 -21.1879 93° East 515 593 36,000  Level FlightAware Transoceanic
Wed 12:16:00 AM 53.0361 -20.9501 93° East 515 593 36,000  Level FlightAware Transoceanic
Wed 12:17:00 AM 53.0278 -20.7124 93° East 515 593 36,000  Level FlightAware Transoceanic
Wed 12:18:00 AM 53.0190 -20.4749 94° East 515 593 36,000  Level FlightAware Transoceanic
Wed 12:19:00 AM 53.0097 -20.2374 94° East 515 593 36,000  Level FlightAware Transoceanic
Wed 12:20:00 AM 53.0005 -20.0132 94° East  Level FlightAware Approximate
Wed 12:21:00 AM 52.9910 -19.7890 94° East  Level FlightAware Approximate
Wed 12:22:00 AM 53.0178 -19.8039 81° East  Level FlightAware Approximate
Wed 12:23:00 AM 53.0376 -19.5814 81° East  Level FlightAware Approximate
Wed 12:24:00 AM 53.0570 -19.3588 82° East  Level FlightAware Approximate
Wed 12:25:00 AM 53.0759 -19.1359 82° East  Level FlightAware Approximate
Wed 12:26:00 AM 53.0945 -18.9129 82° East  Level FlightAware Approximate
Wed 12:27:00 AM 53.1126 -18.6897 82° East  Level FlightAware Approximate
Wed 12:28:00 AM 53.1303 -18.4663 82° East  Level FlightAware Approximate
Wed 12:29:00 AM 53.1476 -18.2427 83° East  Level FlightAware Approximate
Wed 12:30:00 AM 53.1644 -18.0189 83° East  Level FlightAware Approximate
Wed 12:31:00 AM 53.1809 -17.7950 83° East  Level FlightAware Approximate
Wed 12:32:00 AM 53.1969 -17.5709 83° East  Level FlightAware Approximate
Wed 12:33:00 AM 53.2125 -17.3466 83° East  Level FlightAware Approximate
Wed 12:34:00 AM 53.2277 -17.1221 83° East  Level FlightAware Approximate
Wed 12:35:00 AM 53.2425 -16.8976 84° East  Level FlightAware Approximate
Wed 12:36:00 AM 53.2568 -16.6728 84° East  Level FlightAware Approximate
Wed 12:37:00 AM 53.2707 -16.4479 84° East  Level FlightAware Approximate
Wed 12:38:00 AM 53.2842 -16.2229 84° East  Level FlightAware Approximate
Wed 12:39:00 AM 53.2973 -15.9977 84° East  Level FlightAware Approximate
Wed 12:40:00 AM 53.3099 -15.7724 85° East  Level FlightAware Approximate
Wed 12:41:00 AM 53.3222 -15.5469 85° East  Level FlightAware Approximate
Wed 12:42:00 AM 53.3339 -15.3213 85° East  Level FlightAware Approximate
Wed 12:43:00 AM 53.3453 -15.0956 85° East  Level FlightAware Approximate
Wed 12:44:00 AM 53.3564 -14.8699 85° East  Level FlightAware Approximate
Wed 12:45:00 AM 53.3673 -14.6440 85° East  Level FlightAware Approximate
Wed 12:46:00 AM 53.3777 -14.4180 85° East  Level FlightAware Approximate
Wed 12:47:00 AM 53.3877 -14.1919 86° East  Level FlightAware Approximate
Wed 12:48:00 AM 53.3973 -13.9657 86° East  Level FlightAware Approximate
Wed 12:48:37 AM 53.1070 -13.5190 86° East 535 616 36,000  Level FlightAware ADS-B
Wed 12:49:00 AM 53.4070 -13.7394 86° East  Level FlightAware Approximate
Wed 12:49:47 AM 53.1290 -13.2420 82° East 536 617 36,000  Level FlightAware ADS-B
Wed 12:50:00 AM 53.4165 -13.5131 86° East  Level FlightAware Approximate
Wed 12:50:32 AM 53.1440 -13.0650 82° East 536 617 36,000  Level FlightAware ADS-B
Wed 12:52:12 AM 53.1740 -12.6360 83° East 539 620 36,000  Level FlightAware ADS-B
Wed 12:54:00 AM 53.1980 -12.2317 84° East  Level Estimated
Wed 12:54:37 AM 53.2140 -12.0410 84° East 537 618 36,000  Level FlightAware ADS-B
Wed 12:55:52 AM 53.2340 -11.7300 84° East 536 617 36,000  Level FlightAware ADS-B
Wed 12:56:42 AM 53.2470 -11.5260 84° East 536 617 36,000  Level FlightAware ADS-B
Wed 12:58:17 AM 53.2700 -11.1370 84° East 535 616 36,000  Level FlightAware ADS-B
Wed 12:59:27 AM 53.2870 -10.8490 84° East 534 615 36,000  Level FlightAware ADS-B
Wed 01:01:07 AM 53.3090 -10.4410 85° East 534 615 36,000  Level FlightAware ADS-B
Wed 01:01:52 AM 53.3180 -10.2530 85° East 534 615 36,000  Level FlightAware ADS-B
Wed 01:03:07 AM 53.3330 -9.9460 85° East 534 615 36,000  Level FlightAware ADS-B
Wed 01:04:17 AM 53.3470 -9.6570 85° East 534 615 36,000  Level FlightAware ADS-B
Wed 01:06:00 AM 53.3587 -9.2685 87° East  Level Estimated
Wed 01:06:07 AM 53.3670 -9.2080 87° East 533 613 36,000  Level FlightAware ADS-B
Wed 01:06:54 AM 53.3897 -8.9773 87° East 452 520 34,500 -1,385 Descending FlightAware UK
Wed 01:07:12 AM 53.3928 -8.9036 86° East 454 522 34,500  Level FlightAware UK
Wed 01:07:30 AM 53.3957 -8.8296 86° East 454 522 34,500  Level FlightAware UK
Wed 01:07:48 AM 53.3986 -8.7559 86° East 454 522 34,500  Level FlightAware UK
Wed 01:08:06 AM 53.4017 -8.6823 86° East 452 520 34,500  Level FlightAware UK
Wed 01:08:24 AM 53.4046 -8.6087 86° East 452 520 34,500  Level FlightAware UK
Wed 01:08:42 AM 53.4072 -8.5349 87° East 450 518 34,500  Level FlightAware UK
Wed 01:09:00 AM 53.4098 -8.4612 87° East 452 520 34,500  Level FlightAware UK
Wed 01:09:18 AM 53.4124 -8.3867 87° East 452 520 34,500  Level FlightAware UK
Wed 01:09:36 AM 53.4149 -8.3131 87° East 452 520 34,500  Level FlightAware UK
Wed 01:09:54 AM 53.4174 -8.2393 87° East 450 518 34,500  Level FlightAware UK
Wed 01:10:12 AM 53.4201 -8.1653 87° East 450 518 34,500  Level FlightAware UK
Wed 01:10:30 AM 53.4226 -8.0912 87° East 450 518 34,500  Level FlightAware UK
Wed 01:10:48 AM 53.4249 -8.0171 87° East 450 518 34,500  Level FlightAware UK
Wed 01:11:06 AM 53.4272 -7.9429 87° East 450 518 34,500 4,737 Level FlightAware UK
Wed 01:11:07 AM 53.4120 -7.9740 87° East 533 613 36,000  Climbing FlightAware ADS-B
Wed 01:11:24 AM 53.4295 -7.8687 87° East 450 518 34,500 -2,571 Descending FlightAware UK
Wed 01:11:42 AM 53.4318 -7.7946 87° East 452 520 34,500  Level FlightAware UK
Wed 01:12:00 AM 53.4340 -7.7205 87° East 450 518 34,500  Level FlightAware UK
Wed 01:12:18 AM 53.4362 -7.6464 87° East 450 518 34,500  Level FlightAware UK
Wed 01:12:36 AM 53.4385 -7.5723 87° East 450 518 34,500  Level FlightAware UK
Wed 01:12:54 AM 53.4406 -7.4982 87° East 452 520 34,500  Level FlightAware UK
Wed 01:13:12 AM 53.4426 -7.4241 87° East 452 520 34,500  Level FlightAware UK
Wed 01:13:30 AM 53.4446 -7.3499 87° East 452 520 34,500  Level FlightAware UK
Wed 01:13:48 AM 53.4466 -7.2758 87° East 452 520 34,500 3,333 Level FlightAware UK
Wed 01:13:57 AM 53.4330 -7.2720 87° East 534 615 36,000  Climbing FlightAware ADS-B
Wed 01:14:12 AM 53.4491 -7.1760 87° East 452 520 34,500 -2,727 Descending FlightAware UK
Wed 01:14:30 AM 53.4509 -7.1018 88° East 452 520 34,500  Level FlightAware UK
Wed 01:14:48 AM 53.4529 -7.0277 87° East 452 520 34,500  Level FlightAware UK
Wed 01:15:06 AM 53.4547 -6.9536 88° East 452 520 34,500  Level FlightAware UK
Wed 01:15:24 AM 53.4565 -6.8794 88° East 452 520 34,500  Level FlightAware UK
Wed 01:15:42 AM 53.4582 -6.8051 88° East 454 522 34,500 -333 Level FlightAware UK
Wed 01:16:00 AM 53.4598 -6.7307 88° East 460 529 34,300 -1,000 Descending FlightAware UK
Wed 01:16:18 AM 53.4615 -6.6559 88° East 462 532 33,900 3,273 Descending FlightAware UK
Wed 01:16:22 AM 53.4470 -6.6740 88° East 543 625 35,500 -1,250 Climbing FlightAware ADS-B
Wed 01:16:42 AM 53.4635 -6.5540 88° East 468 539 33,400 -3,789 Descending FlightAware UK
Wed 01:17:00 AM 53.4649 -6.4787 88° East 464 534 33,100 2,400 Descending FlightAware UK
Wed 01:17:12 AM 53.4510 -6.4800 88° East 539 620 34,600 -2,000 Climbing FlightAware ADS-B
Wed 01:17:30 AM 53.4674 -6.3532 88° East 464 534 32,100 -5,500 Descending FlightAware UK
Wed 01:17:48 AM 53.4687 -6.2786 88° East 468 539 31,300 -2,667 Descending FlightAware UK
Wed 01:18:06 AM 53.4700 -6.2040 88° East 470 541 30,500 -2,667 Descending FlightAware UK
Wed 01:18:24 AM 53.4712 -6.1292 88° East 472 543 29,700 -2,833 Descending FlightAware UK
Wed 01:18:42 AM 53.4724 -6.0544 88° East 470 541 28,800 1,826 Descending FlightAware UK
Wed 01:18:47 AM 53.4580 -6.0670 88° East 538 619 30,400 -3,250 Climbing FlightAware ADS-B
Wed 01:19:06 AM 53.4741 -5.9545 88° East 476 548 27,500 -6,162 Descending FlightAware UK
Wed 01:19:24 AM 53.4723 -5.8780 92° East 478 550 26,600 -2,833 Descending FlightAware UK
Wed 01:19:42 AM 53.4659 -5.8047 98° East 474 545 25,800 -1,667 Descending FlightAware UK
Wed 01:20:00 AM 53.4591 -5.7321 99° East 470 541 25,600 2,229 Descending FlightAware UK
Wed 01:20:17 AM 53.4400 -5.6920 99° East 523 602 27,100 -167 Climbing FlightAware ADS-B
Wed 01:20:36 AM 53.4449 -5.5883 99° East 470 541 25,500 -2,595 Descending FlightAware UK
Wed 01:20:54 AM 53.4377 -5.5163 99° East 472 543 25,500 4,286 Level FlightAware UK
Wed 01:20:57 AM 53.4250 -5.5340 99° East 526 605 27,000  Climbing FlightAware ADS-B
Wed 01:21:12 AM 53.4305 -5.4441 99° East 474 545 25,500 -2,727 Descending FlightAware UK
Wed 01:21:30 AM 53.4233 -5.3718 99° East 474 545 25,500 2,571 Level FlightAware UK
Wed 01:21:47 AM 53.4050 -5.3310 100° East 524 603 27,000  Climbing FlightAware ADS-B
Wed 01:21:48 AM 53.4161 -5.2996 100° East 474 545 25,500 -4,737 Descending FlightAware UK
Wed 01:22:06 AM 53.4085 -5.2276 100° East 474 545 25,500  Level FlightAware UK
Wed 01:22:24 AM 53.4009 -5.1556 100° East 476 548 25,500 2,903 Level FlightAware UK
Wed 01:22:37 AM 53.3870 -5.1610 100° East 524 603 27,000 -400 Climbing FlightAware ADS-B
Wed 01:22:54 AM 53.3942 -5.0344 100° East 470 541 25,300 -4,286 Descending FlightAware UK
Wed 01:23:12 AM 53.3934 -4.9622 91° East 466 536 24,500 1,304 Descending FlightAware UK
Wed 01:23:17 AM 53.3800 -4.9580 91° East 513 590 25,800 -2,750 Climbing FlightAware ADS-B
Wed 01:23:36 AM 53.3926 -4.8675 91° East 454 522 23,400 -1,886 Descending FlightAware UK
Wed 01:23:52 AM 53.3790 -4.8220 91° East 504 580 24,700 -1,333 Climbing FlightAware ADS-B
Wed 01:23:54 AM 53.3920 -4.7974 91° East 450 518 23,000 -6,300 Descending FlightAware UK
Wed 01:24:12 AM 53.3915 -4.7275 91° East 448 516 22,600 -1,500 Descending FlightAware UK
Wed 01:24:30 AM 53.3906 -4.6581 91° East 448 516 22,100 1,800 Descending FlightAware UK
Wed 01:24:42 AM 53.3770 -4.6350 91° East 496 571 23,500 -1,400 Climbing FlightAware ADS-B
Wed 01:25:00 AM 53.3886 -4.5433 91° East 440 506 21,400 -4,216 Descending FlightAware UK
Wed 01:25:19 AM 53.3872 -4.4744 92° East 438 504 20,900 3,000 Descending FlightAware UK
Wed 01:25:22 AM 53.3740 -4.4790 92° East 489 563 22,500 -1,333 Climbing FlightAware ADS-B
Wed 01:25:37 AM 53.3857 -4.4065 92° East 436 502 20,500 -4,364 Descending FlightAware UK
Wed 01:25:55 AM 53.3840 -4.3389 92° East 434 499 20,100 2,400 Descending FlightAware UK
Wed 01:26:02 AM 53.3710 -4.3270 92° East 482 555 21,500 -1,500 Climbing FlightAware ADS-B
Wed 01:26:19 AM 53.3817 -4.2495 92° East 432 497 19,500 -4,114 Descending FlightAware UK
Wed 01:26:37 AM 53.3803 -4.1833 92° East 428 493 19,100 2,143 Descending FlightAware UK
Wed 01:26:47 AM 53.3670 -4.1700 92° East 471 542 20,500 -1,400 Climbing FlightAware ADS-B
Wed 01:27:07 AM 53.3783 -4.0750 92° East 420 483 18,400 -3,947 Descending FlightAware UK
Wed 01:27:25 AM 53.3777 -4.0096 91° East 418 481 18,000 3,900 Descending FlightAware UK
Wed 01:27:27 AM 53.3660 -4.0450 91° East 468 539 19,700 -1,667 Climbing FlightAware ADS-B
Wed 01:27:43 AM 53.3774 -3.9448 91° East 414 476 17,500 -5,294 Descending FlightAware UK
Wed 01:28:01 AM 53.3811 -3.8811 84° East 412 474 16,700 1,750 Descending FlightAware UK
Wed 01:28:07 AM 53.3700 -3.8840 84° East 456 525 18,200 -1,750 Climbing FlightAware ADS-B
Wed 01:28:25 AM 53.3889 -3.7976 84° East 404 465 16,000 -4,667 Descending FlightAware UK
Wed 01:28:43 AM 53.3976 -3.7374 76° East 402 463 15,400 1,556 Descending FlightAware UK
Wed 01:28:52 AM 53.3880 -3.7300 76° East 439 505 16,700 -2,000 Climbing FlightAware ADS-B
Wed 01:29:07 AM 53.4086 -3.6583 76° East 394 453 14,600 -4,909 Descending FlightAware UK
Wed 01:29:25 AM 53.4166 -3.6000 77° East 386 444 14,000 1,400 Descending FlightAware UK
Wed 01:29:37 AM 53.4090 -3.5840 77° East 422 486 15,300 -1,800 Climbing FlightAware ADS-B
Wed 01:29:55 AM 53.4296 -3.5048 77° East 380 437 13,100 -4,500 Descending FlightAware UK
Wed 01:30:13 AM 53.4373 -3.4487 77° East 374 430 12,600 2,727 Descending FlightAware UK
Wed 01:30:17 AM 53.4260 -3.4600 77° East 405 466 14,100 -2,000 Climbing FlightAware ADS-B
Wed 01:30:37 AM 53.4474 -3.3765 77° East 366 421 11,800 -4,263 Descending FlightAware UK
Wed 01:30:55 AM 53.4549 -3.3224 77° East 358 412 11,400 3,900 Descending FlightAware UK
Wed 01:30:57 AM 53.4410 -3.3540 77° East 390 449 13,100 -667 Climbing FlightAware ADS-B
Wed 01:31:13 AM 53.4621 -3.2709 77° East 350 403 11,200 -4,941 Descending FlightAware UK
Wed 01:31:31 AM 53.4692 -3.2197 77° East 358 412 10,300 828 Descending FlightAware UK
Wed 01:31:42 AM 53.4620 -3.2090 77° East 382 440 11,600 -1,600 Climbing FlightAware ADS-B
Wed 01:32:01 AM 53.4813 -3.1327 77° East 346 398 9,500 -4,216 Descending FlightAware UK
Wed 01:32:19 AM 53.4882 -3.0823 77° East 334 384 9,000 2,857 Descending FlightAware UK
Wed 01:32:22 AM 53.4780 -3.0920 77° East 361 415 10,500 -1,667 Climbing FlightAware ADS-B
Wed 01:32:37 AM 53.4947 -3.0342 77° East 320 368 8,500 -1,000 Descending FlightAware UK
Wed 01:32:52 AM 53.4890 -3.0160 77° East 329 379 10,000 -200 Climbing FlightAware ADS-B
Wed 01:33:07 AM 53.5047 -2.9601 77° East 280 322 8,400 -1,000 Descending FlightAware UK
Wed 01:33:22 AM 53.4990 -2.9430 77° East 308 354 9,500 -2,200 Climbing FlightAware ADS-B
Wed 01:33:37 AM 53.5140 -2.8903 77° East 276 318 7,300 -1,600 Descending FlightAware UK
Wed 01:33:52 AM 53.5090 -2.8720 77° East 297 342 8,700 -800 Climbing FlightAware ADS-B
Wed 01:34:07 AM 53.5232 -2.8224 77° East 264 304 6,900 -960 Descending FlightAware UK
Wed 01:34:17 AM 53.5160 -2.8210 77° East 290 334 8,300 -1,000 Climbing FlightAware ADS-B
Wed 01:34:37 AM 53.5320 -2.7564 77° East 256 295 6,400 -600 Descending FlightAware UK
Wed 01:34:47 AM 53.5250 -2.7530 77° East 288 331 8,000 200 Climbing FlightAware ADS-B
Wed 01:35:07 AM 53.5396 -2.6906 77° East 260 299 6,500  Descending FlightAware UK
Wed 01:35:12 AM 53.5320 -2.6970 77° East 292 336 8,000 -500 Climbing FlightAware ADS-B
Wed 01:35:31 AM 53.5465 -2.6365 77° East 258 297 6,300 -600 Descending FlightAware UK
Wed 01:35:42 AM 53.5410 -2.6300 77° East 289 333 7,700 -1,000 Climbing FlightAware ADS-B
Wed 01:36:01 AM 53.5552 -2.5705 77° East 254 292 5,800 -1,200 Descending FlightAware UK
Wed 01:36:12 AM 53.5490 -2.5660 77° East 287 330 7,100 2,000 Climbing FlightAware ADS-B
Wed 01:36:37 AM 53.5550 -2.5120 79° East 288 331 7,000 -2,233 Descending FlightAware ADS-B
Wed 01:36:55 AM 53.5658 -2.4517 79° East 256 295 5,500  Descending FlightAware UK
Wed 01:37:07 AM 53.5590 -2.4420 79° East 289 333 7,000 -400 Climbing FlightAware ADS-B
Wed 01:37:25 AM 53.5700 -2.3841 79° East 254 292 5,300 -720 Descending FlightAware UK
Wed 01:37:32 AM 53.5630 -2.3890 79° East 284 327 6,700 -1,250 Climbing FlightAware ADS-B
Wed 01:37:49 AM 53.5733 -2.3312 79° East 248 285 4,800 -1,200 Descending FlightAware UK
Wed 01:38:02 AM 53.5670 -2.3220 79° East 285 328 6,100 -1,000 Climbing FlightAware ADS-B
Wed 01:38:19 AM 53.5776 -2.2649 79° East 248 285 4,300 -960 Descending FlightAware UK
Wed 01:38:27 AM 53.5710 -2.2660 79° East 283 326 5,700 2,143 Climbing FlightAware ADS-B
Wed 01:38:47 AM 53.5740 -2.2260 83° East 283 326 5,300 -3,600 Descending FlightAware ADS-B
Wed 01:39:07 AM 53.5850 -2.1596 83° East 250 288 3,300 -960 Descending FlightAware UK
Wed 01:39:12 AM 53.5790 -2.1710 83° East 280 322 4,900 4,500 Climbing FlightAware ADS-B
Wed 01:39:27 AM 53.5790 -2.1400 90° East 267 307 4,800 -3,097 Descending FlightAware ADS-B
Wed 01:39:43 AM 53.5785 -2.0863 90° East 246 283 3,300  Descending FlightAware UK
Wed 01:39:52 AM 53.5700 -2.0900 90° East 265 305 4,800 -720 Climbing FlightAware ADS-B
Wed 01:40:08 AM 53.5695 -2.0385 90° East 238 274 3,000 -1,000 Descending FlightAware UK
Wed 01:40:22 AM 53.5590 -2.0320 90° East 251 289 4,300 2,483 Climbing FlightAware ADS-B
Wed 01:40:37 AM 53.5510 -2.0090 120° Southeast 227 261 4,200 -3,353 Descending FlightAware ADS-B
Wed 01:40:56 AM 53.5416 -1.9669 120° Southeast 210 242 2,400 -480 Descending FlightAware UK
Wed 01:41:02 AM 53.5330 -1.9790 120° Southeast 209 241 4,000 4,000 Climbing FlightAware ADS-B
Wed 01:41:17 AM 53.5210 -1.9670 149° Southeast 176 203 3,800 -2,833 Descending FlightAware ADS-B
Wed 01:41:38 AM 53.5099 -1.9533 149° Southeast 190 219 2,300  Descending FlightAware UK
Wed 01:41:47 AM 53.5020 -1.9730 149° Southeast 153 176 3,800 3,750 Climbing FlightAware ADS-B
Wed 01:42:02 AM 53.4950 -1.9850 226° Southwest 153 176 3,800 -300 Level FlightAware ADS-B
Wed 01:42:27 AM 53.4840 -2.0090 232° Southwest 154 177 3,600 -450 Descending FlightAware ADS-B
Wed 01:42:42 AM 53.4790 -2.0200 233° Southwest 154 177 3,500 -533 Descending FlightAware ADS-B
Wed 01:43:12 AM 53.4640 -2.0520 232° Southwest 158 182 3,200 -545 Descending FlightAware ADS-B
Wed 01:43:37 AM 53.4540 -2.0740 233° Southwest 156 180 3,000 -2,327 Descending FlightAware ADS-B
Wed 01:44:01 AM 53.4450 -2.0854 233° Southwest 188 216 1,300 -400 Descending FlightAware UK
Wed 01:44:07 AM 53.4390 -2.1050 233° Southwest 154 177 2,800 -1,000 Climbing FlightAware ADS-B
Wed 01:44:25 AM 53.4342 -2.1078 233° Southwest 180 207 900 -960 Descending FlightAware UK
Wed 01:44:32 AM 53.4290 -2.1280 233° Southwest 149 171 2,400 1,784 Climbing FlightAware ADS-B
Wed 01:45:02 AM 53.4160 -2.1550 231° Southwest 142 163 2,000 -2,809 Descending FlightAware ADS-B
Wed 01:45:19 AM 53.4120 -2.1543 231° Southwest 160 184 200 -800 Descending FlightAware UK
Wed 01:45:32 AM 53.4040 -2.1800 231° Southwest 139 160 1,600 2,182 Climbing FlightAware ADS-B
Wed 01:45:52 AM 53.3970 -2.1950 232° Southwest 121 139 1,400 -600 Descending FlightAware ADS-B
Wed 01:46:12 AM 53.3910 -2.2100 236° Southwest 110 127 1,200 -600 Descending FlightAware ADS-B
Wed 01:46:42 AM 53.3810 -2.2300 230° Southwest 111 128 900 -655 Descending FlightAware ADS-B
Wed 01:47:07 AM 53.3730 -2.2470 232° Southwest 113 130 600 -655 Descending FlightAware ADS-B
Wed 01:47:37 AM 53.3630 -2.2690 233° Southwest 124 143 300 -667 Descending FlightAware ADS-B
Wed 01:47:52 AM 53.3570 -2.2820 232° Southwest 128 147 100 -800 Descending FlightAware ADS-B

Login

Don't have an account? Register now (free) for customized features, flight alerts, and more!